WAT2045 KSAT-KMSP
Flight info
| Callsign | WAT2045 |
|---|---|
| Flight time | N/A |
| Altitude | 37000 |
| Route | YODUH2 KLNGR FUZ EAKER TUL ROKKK NITZR4 |
| Aircraft | B738/M-SDE2E3FGHIRWXY/LB1 |
Departure
| Time | 2026-05-09 02:36 |
|---|---|
| Airport | San Antonio International Airport (KSAT) |
Arrival
| Time | N/A |
|---|---|
| Airport | Minneapolis–Saint Paul International Airport / Wold–Chamberlain Field (KMSP) |
| Time | Latitude | Longitude | Altitude | Speed | Heading |
|---|---|---|---|---|---|
| 2026-05-09 02:10 | 29.52639 | -98.47036 | 785 ft | 0 kts | 312° |
| 2026-05-09 02:23 | 29.52636 | -98.47032 | 785 ft | 3 kts | 312° |
| 2026-05-09 02:23 | 29.52622 | -98.47016 | 784 ft | 3 kts | 339° |
| 2026-05-09 02:23 | 29.52605 | -98.47017 | 784 ft | 2 kts | 37° |
| 2026-05-09 02:23 | 29.52604 | -98.47018 | 784 ft | 0 kts | 37° |
| 2026-05-09 02:28 | 29.52631 | -98.46984 | 784 ft | 8 kts | 49° |
| 2026-05-09 02:28 | 29.52670 | -98.46940 | 786 ft | 8 kts | 42° |
| 2026-05-09 02:28 | 29.52715 | -98.46909 | 787 ft | 8 kts | 6° |
| 2026-05-09 02:29 | 29.52792 | -98.46909 | 787 ft | 15 kts | 0° |
| 2026-05-09 02:29 | 29.52888 | -98.46960 | 789 ft | 16 kts | 312° |
| 2026-05-09 02:29 | 29.52961 | -98.47053 | 791 ft | 15 kts | 312° |
| 2026-05-09 02:29 | 29.53031 | -98.47143 | 792 ft | 15 kts | 311° |
| 2026-05-09 02:30 | 29.53098 | -98.47229 | 794 ft | 14 kts | 311° |
| 2026-05-09 02:30 | 29.53163 | -98.47313 | 795 ft | 14 kts | 311° |
| 2026-05-09 02:30 | 29.53237 | -98.47409 | 794 ft | 18 kts | 311° |
| 2026-05-09 02:30 | 29.53334 | -98.47535 | 795 ft | 22 kts | 311° |
| 2026-05-09 02:31 | 29.53435 | -98.47665 | 793 ft | 22 kts | 312° |
| 2026-05-09 02:31 | 29.53532 | -98.47790 | 796 ft | 21 kts | 311° |
| 2026-05-09 02:31 | 29.53627 | -98.47913 | 797 ft | 20 kts | 311° |
| 2026-05-09 02:31 | 29.53718 | -98.48033 | 802 ft | 20 kts | 311° |
| 2026-05-09 02:32 | 29.53807 | -98.48148 | 803 ft | 19 kts | 312° |
| 2026-05-09 02:32 | 29.53894 | -98.48260 | 805 ft | 18 kts | 312° |
| 2026-05-09 02:32 | 29.53978 | -98.48367 | 806 ft | 18 kts | 311° |
| 2026-05-09 02:32 | 29.54059 | -98.48472 | 804 ft | 17 kts | 311° |
| 2026-05-09 02:33 | 29.54136 | -98.48572 | 804 ft | 17 kts | 311° |
| 2026-05-09 02:33 | 29.54200 | -98.48604 | 804 ft | 0 kts | 21° |
| 2026-05-09 02:35 | 29.54230 | -98.48586 | 804 ft | 11 kts | 36° |
| 2026-05-09 02:35 | 29.54247 | -98.48570 | 804 ft | 0 kts | 40° |
| 2026-05-09 02:35 | 29.54260 | -98.48545 | 804 ft | 8 kts | 84° |
| 2026-05-09 02:35 | 29.54197 | -98.48456 | 804 ft | 39 kts | 133° |
| 2026-05-09 02:36 | 29.53816 | -98.47965 | 801 ft | 124 kts | 131° |
| 2026-05-09 02:36 | 29.53085 | -98.47030 | 936 ft | 181 kts | 133° |
| 2026-05-09 02:36 | 29.52227 | -98.45923 | 1887 ft | 184 kts | 131° |
| 2026-05-09 02:36 | 29.51394 | -98.44818 | 2969 ft | 189 kts | 131° |
| 2026-05-09 02:37 | 29.50479 | -98.43606 | 3447 ft | 216 kts | 131° |
| 2026-05-09 02:37 | 29.49423 | -98.42210 | 3731 ft | 247 kts | 131° |
| 2026-05-09 02:37 | 29.48258 | -98.40671 | 4231 ft | 265 kts | 131° |
| 2026-05-09 02:37 | 29.47018 | -98.39033 | 4826 ft | 271 kts | 131° |
| 2026-05-09 02:38 | 29.45779 | -98.37398 | 5091 ft | 272 kts | 131° |
| 2026-05-09 02:38 | 29.44549 | -98.35777 | 5102 ft | 273 kts | 131° |
| 2026-05-09 02:38 | 29.43303 | -98.34132 | 5114 ft | 273 kts | 131° |
| 2026-05-09 02:38 | 29.42233 | -98.32346 | 5098 ft | 274 kts | 111° |
| 2026-05-09 02:39 | 29.41971 | -98.30194 | 5247 ft | 278 kts | 82° |
| 2026-05-09 02:39 | 29.42682 | -98.28152 | 6068 ft | 278 kts | 52° |
| 2026-05-09 02:39 | 29.44122 | -98.26718 | 7035 ft | 276 kts | 26° |
| 2026-05-09 02:39 | 29.45968 | -98.26117 | 7902 ft | 278 kts | 6° |
| 2026-05-09 02:40 | 29.47906 | -98.25886 | 8729 ft | 282 kts | 4° |
| 2026-05-09 02:40 | 29.49880 | -98.25700 | 9556 ft | 286 kts | 4° |
| 2026-05-09 02:40 | 29.51876 | -98.25520 | 10374 ft | 290 kts | 3° |
| 2026-05-09 02:40 | 29.53953 | -98.25627 | 10703 ft | 312 kts | 348° |
| 2026-05-09 02:41 | 29.56140 | -98.26230 | 10992 ft | 333 kts | 345° |
| 2026-05-09 02:41 | 29.58414 | -98.26909 | 11633 ft | 341 kts | 345° |
| 2026-05-09 02:41 | 29.60726 | -98.27576 | 12408 ft | 344 kts | 346° |
| 2026-05-09 02:41 | 29.63068 | -98.28220 | 13196 ft | 348 kts | 346° |
| 2026-05-09 02:42 | 29.65437 | -98.28845 | 13944 ft | 351 kts | 347° |
| 2026-05-09 02:42 | 29.67840 | -98.29460 | 14658 ft | 356 kts | 347° |
| 2026-05-09 02:42 | 29.70270 | -98.30071 | 15361 ft | 360 kts | 347° |
| 2026-05-09 02:42 | 29.72726 | -98.30682 | 16055 ft | 363 kts | 347° |
| 2026-05-09 02:43 | 29.75211 | -98.31297 | 16733 ft | 367 kts | 347° |
| 2026-05-09 02:43 | 29.77726 | -98.31918 | 17382 ft | 371 kts | 347° |
| 2026-05-09 02:43 | 29.80263 | -98.32545 | 18024 ft | 375 kts | 347° |
| 2026-05-09 02:43 | 29.82830 | -98.33179 | 18654 ft | 379 kts | 347° |
| 2026-05-09 02:44 | 29.84541 | -98.33602 | 19056 ft | 381 kts | 347° |
| 2026-05-09 02:44 | 29.87142 | -98.34246 | 19671 ft | 384 kts | 347° |
| 2026-05-09 02:44 | 29.89770 | -98.34896 | 20265 ft | 387 kts | 347° |
| 2026-05-09 02:44 | 29.92415 | -98.35551 | 20841 ft | 391 kts | 347° |
| 2026-05-09 02:45 | 29.95087 | -98.36213 | 21385 ft | 395 kts | 347° |
| 2026-05-09 02:45 | 29.97786 | -98.36883 | 21910 ft | 398 kts | 347° |
| 2026-05-09 02:45 | 30.00508 | -98.37558 | 22433 ft | 401 kts | 347° |
| 2026-05-09 02:45 | 30.03248 | -98.38238 | 22951 ft | 404 kts | 347° |
| 2026-05-09 02:46 | 30.06038 | -98.38749 | 23425 ft | 409 kts | 356° |
| 2026-05-09 02:46 | 30.08889 | -98.38687 | 23910 ft | 412 kts | 6° |
| 2026-05-09 02:46 | 30.11713 | -98.38064 | 24388 ft | 415 kts | 14° |
| 2026-05-09 02:46 | 30.14519 | -98.37210 | 24834 ft | 418 kts | 14° |
| 2026-05-09 02:47 | 30.17339 | -98.36317 | 25267 ft | 422 kts | 15° |
| 2026-05-09 02:47 | 30.20177 | -98.35415 | 25697 ft | 424 kts | 15° |
| 2026-05-09 02:47 | 30.23034 | -98.34514 | 26121 ft | 427 kts | 14° |
| 2026-05-09 02:47 | 30.25912 | -98.33618 | 26523 ft | 430 kts | 14° |
| 2026-05-09 02:48 | 30.28814 | -98.32723 | 26931 ft | 432 kts | 14° |
| 2026-05-09 02:48 | 30.31732 | -98.31828 | 27320 ft | 434 kts | 14° |
| 2026-05-09 02:48 | 30.34620 | -98.30945 | 27676 ft | 437 kts | 14° |
| 2026-05-09 02:48 | 30.37571 | -98.30045 | 28024 ft | 440 kts | 14° |
| 2026-05-09 02:49 | 30.40539 | -98.29139 | 28379 ft | 442 kts | 14° |
| 2026-05-09 02:49 | 30.43523 | -98.28227 | 28725 ft | 444 kts | 14° |
| 2026-05-09 02:49 | 30.46561 | -98.27299 | 29058 ft | 447 kts | 14° |
| 2026-05-09 02:49 | 30.49539 | -98.26387 | 29384 ft | 449 kts | 14° |
| 2026-05-09 02:50 | 30.52567 | -98.25460 | 29703 ft | 451 kts | 14° |
| 2026-05-09 02:50 | 30.55611 | -98.24527 | 30019 ft | 453 kts | 14° |
| 2026-05-09 02:50 | 30.58665 | -98.23590 | 30314 ft | 455 kts | 14° |
| 2026-05-09 02:50 | 30.61726 | -98.22651 | 30592 ft | 457 kts | 14° |
| 2026-05-09 02:51 | 30.64813 | -98.21703 | 30858 ft | 459 kts | 14° |
| 2026-05-09 02:51 | 30.67909 | -98.20754 | 31127 ft | 461 kts | 14° |
| 2026-05-09 02:51 | 30.71015 | -98.19819 | 31465 ft | 461 kts | 14° |
| 2026-05-09 02:51 | 30.74116 | -98.18899 | 31844 ft | 459 kts | 14° |
| 2026-05-09 02:52 | 30.77215 | -98.17983 | 32218 ft | 458 kts | 14° |
| 2026-05-09 02:52 | 30.80303 | -98.17069 | 32555 ft | 458 kts | 14° |
| 2026-05-09 02:52 | 30.83385 | -98.16156 | 32886 ft | 457 kts | 14° |
| 2026-05-09 02:52 | 30.86472 | -98.15238 | 33217 ft | 456 kts | 14° |
| 2026-05-09 02:53 | 30.89546 | -98.14322 | 33547 ft | 456 kts | 14° |
| 2026-05-09 02:53 | 30.92617 | -98.13406 | 33862 ft | 455 kts | 14° |
| 2026-05-09 02:53 | 30.95637 | -98.12504 | 34167 ft | 454 kts | 14° |
| 2026-05-09 02:53 | 30.98695 | -98.11590 | 34460 ft | 454 kts | 14° |
| 2026-05-09 02:54 | 31.01758 | -98.10674 | 34755 ft | 453 kts | 14° |
| 2026-05-09 02:54 | 31.04806 | -98.09761 | 35062 ft | 452 kts | 14° |
| 2026-05-09 02:54 | 31.07858 | -98.08847 | 35363 ft | 451 kts | 14° |
| 2026-05-09 02:54 | 31.10893 | -98.07937 | 35610 ft | 451 kts | 14° |
| 2026-05-09 02:55 | 31.13944 | -98.07021 | 35858 ft | 451 kts | 14° |
| 2026-05-09 02:55 | 31.16979 | -98.06110 | 36130 ft | 450 kts | 14° |
| 2026-05-09 02:55 | 31.20009 | -98.05199 | 36356 ft | 450 kts | 14° |
| 2026-05-09 02:55 | 31.23047 | -98.04286 | 36537 ft | 451 kts | 14° |
| 2026-05-09 02:56 | 31.26088 | -98.03371 | 36750 ft | 451 kts | 14° |
| 2026-05-09 02:56 | 31.29123 | -98.02457 | 36983 ft | 451 kts | 14° |
| 2026-05-09 02:56 | 31.32174 | -98.01538 | 36985 ft | 454 kts | 14° |
| 2026-05-09 02:57 | 31.38315 | -97.99686 | 36994 ft | 455 kts | 14° |
| 2026-05-09 02:57 | 31.44404 | -97.97847 | 36991 ft | 449 kts | 14° |
| 2026-05-09 02:58 | 31.50399 | -97.96034 | 37002 ft | 447 kts | 14° |
| 2026-05-09 02:58 | 31.56409 | -97.94215 | 37001 ft | 446 kts | 14° |
| 2026-05-09 02:59 | 31.62449 | -97.92384 | 37002 ft | 445 kts | 14° |
| 2026-05-09 02:59 | 31.68453 | -97.90561 | 37003 ft | 446 kts | 14° |
| 2026-05-09 03:00 | 31.74472 | -97.88731 | 37002 ft | 447 kts | 14° |
| 2026-05-09 03:00 | 31.80464 | -97.86907 | 37005 ft | 448 kts | 14° |
| 2026-05-09 03:01 | 31.86518 | -97.85062 | 37002 ft | 450 kts | 14° |
| 2026-05-09 03:01 | 31.92593 | -97.83208 | 37003 ft | 451 kts | 14° |
| 2026-05-09 03:02 | 31.98683 | -97.81346 | 37003 ft | 452 kts | 14° |
| 2026-05-09 03:02 | 32.04792 | -97.79476 | 37000 ft | 453 kts | 14° |
| 2026-05-09 03:03 | 32.10895 | -97.77606 | 37000 ft | 453 kts | 14° |
| 2026-05-09 03:03 | 32.17001 | -97.75732 | 37002 ft | 453 kts | 14° |
| 2026-05-09 03:04 | 32.23101 | -97.73857 | 36999 ft | 453 kts | 14° |
| 2026-05-09 03:04 | 32.29189 | -97.71983 | 37000 ft | 452 kts | 14° |
| 2026-05-09 03:05 | 32.35269 | -97.70109 | 37001 ft | 451 kts | 14° |
| 2026-05-09 03:05 | 32.41331 | -97.68238 | 37000 ft | 450 kts | 14° |
| 2026-05-09 03:06 | 32.47378 | -97.66370 | 37000 ft | 449 kts | 14° |
| 2026-05-09 03:06 | 32.53380 | -97.64512 | 37001 ft | 448 kts | 14° |
| 2026-05-09 03:07 | 32.59410 | -97.62643 | 37003 ft | 448 kts | 14° |
| 2026-05-09 03:07 | 32.65442 | -97.60771 | 37001 ft | 448 kts | 14° |
| 2026-05-09 03:08 | 32.71468 | -97.58898 | 37001 ft | 448 kts | 14° |
| 2026-05-09 03:08 | 32.77508 | -97.57019 | 37003 ft | 448 kts | 14° |
| 2026-05-09 03:09 | 32.83548 | -97.55137 | 37003 ft | 449 kts | 14° |
| 2026-05-09 03:09 | 32.89589 | -97.53251 | 37002 ft | 449 kts | 14° |
| 2026-05-09 03:10 | 32.95598 | -97.51373 | 37001 ft | 450 kts | 14° |
| 2026-05-09 03:10 | 33.01648 | -97.49480 | 37001 ft | 450 kts | 14° |
| 2026-05-09 03:11 | 33.07713 | -97.47579 | 37001 ft | 450 kts | 14° |
| 2026-05-09 03:11 | 33.13773 | -97.45677 | 37002 ft | 451 kts | 14° |
| 2026-05-09 03:12 | 33.19852 | -97.43766 | 37001 ft | 451 kts | 14° |
| 2026-05-09 03:12 | 33.25918 | -97.41857 | 37002 ft | 451 kts | 14° |
| 2026-05-09 03:13 | 33.34989 | -97.38997 | 37000 ft | 451 kts | 14° |
| 2026-05-09 03:13 | 33.41089 | -97.37069 | 37002 ft | 451 kts | 14° |
| 2026-05-09 03:14 | 33.47109 | -97.35165 | 37001 ft | 450 kts | 14° |
| 2026-05-09 03:14 | 33.53168 | -97.33246 | 37001 ft | 450 kts | 14° |
| 2026-05-09 03:15 | 33.59229 | -97.31323 | 37002 ft | 450 kts | 14° |
| 2026-05-09 03:15 | 33.65280 | -97.29400 | 37000 ft | 450 kts | 14° |
| 2026-05-09 03:16 | 33.71332 | -97.27474 | 37001 ft | 450 kts | 14° |
| 2026-05-09 03:16 | 33.77384 | -97.25546 | 37002 ft | 450 kts | 14° |
| 2026-05-09 03:17 | 33.83430 | -97.23617 | 37001 ft | 449 kts | 14° |
| 2026-05-09 03:17 | 33.89475 | -97.21684 | 37002 ft | 449 kts | 14° |
| 2026-05-09 03:18 | 33.95521 | -97.19749 | 37000 ft | 449 kts | 14° |
| 2026-05-09 03:18 | 34.01526 | -97.17825 | 37003 ft | 449 kts | 14° |
| 2026-05-09 03:19 | 34.07567 | -97.15886 | 37001 ft | 449 kts | 14° |
| 2026-05-09 03:19 | 34.13615 | -97.13941 | 37001 ft | 449 kts | 14° |
| 2026-05-09 03:20 | 34.19653 | -97.11997 | 37002 ft | 449 kts | 14° |
| 2026-05-09 03:20 | 34.25697 | -97.10049 | 37003 ft | 449 kts | 14° |
| 2026-05-09 03:21 | 34.31742 | -97.08097 | 37000 ft | 449 kts | 14° |
| 2026-05-09 03:21 | 34.37782 | -97.06143 | 37001 ft | 450 kts | 14° |
| 2026-05-09 03:22 | 34.43829 | -97.04185 | 37001 ft | 450 kts | 14° |
| 2026-05-09 03:22 | 34.49874 | -97.02224 | 37003 ft | 450 kts | 14° |
| 2026-05-09 03:23 | 34.55927 | -97.00258 | 37001 ft | 450 kts | 14° |
| 2026-05-09 03:23 | 34.61974 | -96.98290 | 37002 ft | 450 kts | 14° |
| 2026-05-09 03:24 | 34.67987 | -96.96331 | 37001 ft | 450 kts | 14° |
| 2026-05-09 03:24 | 34.74040 | -96.94356 | 37002 ft | 450 kts | 14° |
| 2026-05-09 03:25 | 34.80094 | -96.92377 | 37001 ft | 450 kts | 14° |
| 2026-05-09 03:25 | 34.86151 | -96.90395 | 37001 ft | 450 kts | 14° |
| 2026-05-09 03:26 | 34.92201 | -96.88412 | 37002 ft | 450 kts | 14° |
| 2026-05-09 03:26 | 34.98251 | -96.86425 | 37000 ft | 450 kts | 14° |
| 2026-05-09 03:27 | 35.04300 | -96.84436 | 37002 ft | 450 kts | 14° |
| 2026-05-09 03:27 | 35.10349 | -96.82444 | 37001 ft | 450 kts | 14° |
| 2026-05-09 03:28 | 35.16395 | -96.80450 | 37000 ft | 450 kts | 14° |
| 2026-05-09 03:28 | 35.21425 | -96.78789 | 37002 ft | 450 kts | 14° |
| 2026-05-09 03:29 | 35.27462 | -96.76792 | 37000 ft | 450 kts | 14° |
| 2026-05-09 03:29 | 35.34485 | -96.74465 | 37001 ft | 450 kts | 14° |
| 2026-05-09 03:30 | 35.40522 | -96.72461 | 37002 ft | 449 kts | 14° |
| 2026-05-09 03:30 | 35.45580 | -96.70781 | 37000 ft | 449 kts | 14° |
| 2026-05-09 03:31 | 35.51576 | -96.68785 | 37002 ft | 449 kts | 14° |
| 2026-05-09 03:31 | 35.57618 | -96.66771 | 37001 ft | 449 kts | 14° |
| 2026-05-09 03:32 | 35.63654 | -96.64756 | 37001 ft | 449 kts | 14° |
| 2026-05-09 03:32 | 35.69694 | -96.62736 | 37002 ft | 449 kts | 14° |
| 2026-05-09 03:33 | 35.75727 | -96.60715 | 37001 ft | 449 kts | 14° |
| 2026-05-09 03:33 | 35.81763 | -96.58691 | 37001 ft | 449 kts | 14° |
| 2026-05-09 03:34 | 35.87792 | -96.56665 | 37002 ft | 449 kts | 15° |
| 2026-05-09 03:34 | 35.93788 | -96.54648 | 37001 ft | 449 kts | 15° |
| 2026-05-09 03:35 | 35.99815 | -96.52616 | 37002 ft | 449 kts | 15° |
| 2026-05-09 03:35 | 36.05855 | -96.50578 | 37001 ft | 449 kts | 15° |
| 2026-05-09 03:36 | 36.11886 | -96.48538 | 37001 ft | 449 kts | 15° |
| 2026-05-09 03:36 | 36.17915 | -96.46497 | 37001 ft | 449 kts | 15° |
| 2026-05-09 03:37 | 36.23947 | -96.44451 | 37000 ft | 449 kts | 15° |
| 2026-05-09 03:37 | 36.29980 | -96.42401 | 37003 ft | 449 kts | 15° |
| 2026-05-09 03:38 | 36.36007 | -96.40351 | 37000 ft | 449 kts | 15° |
| 2026-05-09 03:38 | 36.42035 | -96.38296 | 37002 ft | 449 kts | 15° |
| 2026-05-09 03:39 | 36.48069 | -96.36236 | 37001 ft | 449 kts | 15° |
| 2026-05-09 03:39 | 36.54059 | -96.34188 | 37001 ft | 449 kts | 15° |
| 2026-05-09 03:40 | 36.60089 | -96.32123 | 37002 ft | 449 kts | 15° |
| 2026-05-09 03:40 | 36.66119 | -96.30055 | 37001 ft | 449 kts | 15° |
| 2026-05-09 03:41 | 36.72145 | -96.27984 | 37000 ft | 449 kts | 15° |
| 2026-05-09 03:41 | 36.78175 | -96.25909 | 37001 ft | 449 kts | 15° |
| 2026-05-09 03:42 | 36.84210 | -96.23829 | 37002 ft | 449 kts | 15° |
| 2026-05-09 03:42 | 36.90241 | -96.21747 | 37002 ft | 449 kts | 15° |
| 2026-05-09 03:43 | 36.96264 | -96.19664 | 37001 ft | 449 kts | 15° |
| 2026-05-09 03:43 | 37.02249 | -96.17590 | 37000 ft | 449 kts | 15° |
| 2026-05-09 03:44 | 37.08276 | -96.15499 | 37002 ft | 449 kts | 15° |
| 2026-05-09 03:44 | 37.14305 | -96.13404 | 37001 ft | 449 kts | 15° |
| 2026-05-09 03:45 | 37.20328 | -96.11307 | 37001 ft | 449 kts | 15° |
| 2026-05-09 03:45 | 37.26355 | -96.09205 | 37001 ft | 449 kts | 15° |
| 2026-05-09 03:46 | 37.32381 | -96.07101 | 37002 ft | 449 kts | 15° |
| 2026-05-09 03:46 | 37.38401 | -96.04995 | 37002 ft | 449 kts | 15° |
| 2026-05-09 03:47 | 37.44387 | -96.02897 | 37000 ft | 449 kts | 15° |
| 2026-05-09 03:47 | 37.50411 | -96.00782 | 37001 ft | 449 kts | 15° |
| 2026-05-09 03:48 | 37.56428 | -95.98666 | 37002 ft | 449 kts | 15° |
| 2026-05-09 03:48 | 37.62457 | -95.96543 | 37001 ft | 449 kts | 15° |
| 2026-05-09 03:49 | 37.68479 | -95.94419 | 37001 ft | 449 kts | 15° |
| 2026-05-09 03:49 | 37.74501 | -95.92290 | 37002 ft | 449 kts | 15° |
| 2026-05-09 03:50 | 37.80525 | -95.90158 | 37000 ft | 449 kts | 15° |
| 2026-05-09 03:50 | 37.86510 | -95.88036 | 37002 ft | 449 kts | 15° |
| 2026-05-09 03:51 | 37.92529 | -95.85898 | 37000 ft | 449 kts | 15° |
| 2026-05-09 03:51 | 37.98548 | -95.83756 | 37002 ft | 449 kts | 15° |
| 2026-05-09 03:52 | 38.04569 | -95.81610 | 37001 ft | 449 kts | 15° |
| 2026-05-09 03:52 | 38.10594 | -95.79459 | 37001 ft | 449 kts | 15° |
| 2026-05-09 03:53 | 38.16615 | -95.77306 | 37001 ft | 449 kts | 15° |
| 2026-05-09 03:53 | 38.22632 | -95.75150 | 37002 ft | 449 kts | 15° |
| 2026-05-09 03:54 | 38.28654 | -95.72989 | 37000 ft | 449 kts | 15° |
| 2026-05-09 03:54 | 38.34679 | -95.70824 | 37002 ft | 449 kts | 15° |
| 2026-05-09 03:55 | 38.40703 | -95.68654 | 37001 ft | 449 kts | 15° |
| 2026-05-09 03:55 | 38.46714 | -95.66486 | 37001 ft | 449 kts | 15° |
| 2026-05-09 03:56 | 38.52704 | -95.64321 | 37002 ft | 449 kts | 15° |
| 2026-05-09 03:56 | 38.58721 | -95.62143 | 37000 ft | 449 kts | 15° |
| 2026-05-09 03:57 | 38.64736 | -95.59962 | 37002 ft | 449 kts | 15° |
| 2026-05-09 03:57 | 38.70755 | -95.57776 | 37001 ft | 449 kts | 15° |
| 2026-05-09 03:58 | 38.76764 | -95.55589 | 37000 ft | 449 kts | 15° |
| 2026-05-09 03:58 | 38.82781 | -95.53396 | 37002 ft | 449 kts | 15° |
| 2026-05-09 03:59 | 38.88797 | -95.51199 | 37002 ft | 449 kts | 15° |
| 2026-05-09 03:59 | 38.94806 | -95.49001 | 37000 ft | 449 kts | 15° |
| 2026-05-09 04:00 | 39.00815 | -95.46799 | 37002 ft | 449 kts | 15° |
| 2026-05-09 04:00 | 39.06824 | -95.44593 | 37001 ft | 449 kts | 15° |
| 2026-05-09 04:01 | 39.12835 | -95.42383 | 37000 ft | 449 kts | 15° |
| 2026-05-09 04:01 | 39.18798 | -95.40186 | 37001 ft | 449 kts | 15° |
| 2026-05-09 04:02 | 39.24805 | -95.37969 | 37001 ft | 449 kts | 15° |
| 2026-05-09 04:02 | 39.30808 | -95.35749 | 37001 ft | 449 kts | 15° |
| 2026-05-09 04:03 | 39.36815 | -95.33525 | 37001 ft | 449 kts | 15° |
| 2026-05-09 04:03 | 39.42816 | -95.31298 | 37002 ft | 449 kts | 15° |
| 2026-05-09 04:04 | 39.48825 | -95.29065 | 37002 ft | 449 kts | 15° |
| 2026-05-09 04:04 | 39.54829 | -95.26829 | 37001 ft | 449 kts | 15° |
| 2026-05-09 04:05 | 39.60839 | -95.24587 | 37002 ft | 449 kts | 15° |
| 2026-05-09 04:05 | 39.66843 | -95.22343 | 37001 ft | 449 kts | 15° |
| 2026-05-09 04:06 | 39.72845 | -95.20096 | 37001 ft | 449 kts | 15° |
| 2026-05-09 04:06 | 39.78855 | -95.17842 | 37002 ft | 449 kts | 15° |
| 2026-05-09 04:07 | 39.84859 | -95.15585 | 37002 ft | 449 kts | 15° |
| 2026-05-09 04:07 | 39.90822 | -95.13341 | 37002 ft | 449 kts | 15° |
| 2026-05-09 04:08 | 39.96829 | -95.11075 | 37000 ft | 449 kts | 15° |
| 2026-05-09 04:08 | 40.02831 | -95.08808 | 37002 ft | 449 kts | 15° |
| 2026-05-09 04:09 | 40.08831 | -95.06536 | 37001 ft | 449 kts | 15° |
| 2026-05-09 04:09 | 40.14827 | -95.04263 | 37001 ft | 449 kts | 15° |
| 2026-05-09 04:10 | 40.20826 | -95.01984 | 37002 ft | 449 kts | 15° |
| 2026-05-09 04:10 | 40.26821 | -94.99702 | 37000 ft | 449 kts | 15° |
| 2026-05-09 04:11 | 40.32821 | -94.97414 | 37002 ft | 449 kts | 15° |
| 2026-05-09 04:11 | 40.38813 | -94.95125 | 37001 ft | 449 kts | 15° |
| 2026-05-09 04:12 | 40.44768 | -94.92846 | 37002 ft | 449 kts | 15° |
| 2026-05-09 04:12 | 40.50762 | -94.90548 | 37000 ft | 449 kts | 15° |
| 2026-05-09 04:13 | 40.56758 | -94.88244 | 37002 ft | 449 kts | 15° |
| 2026-05-09 04:13 | 40.62756 | -94.85936 | 37001 ft | 449 kts | 16° |
| 2026-05-09 04:14 | 40.68752 | -94.83624 | 37002 ft | 449 kts | 16° |
| 2026-05-09 04:14 | 40.74751 | -94.81306 | 37001 ft | 449 kts | 16° |
| 2026-05-09 04:15 | 40.80742 | -94.78987 | 37002 ft | 449 kts | 16° |
| 2026-05-09 04:15 | 40.86745 | -94.76659 | 37002 ft | 449 kts | 16° |
| 2026-05-09 04:16 | 40.92744 | -94.74329 | 37001 ft | 449 kts | 16° |
| 2026-05-09 04:16 | 40.98742 | -94.71994 | 37002 ft | 449 kts | 16° |
| 2026-05-09 04:17 | 41.04740 | -94.69655 | 37000 ft | 449 kts | 16° |
| 2026-05-09 04:17 | 41.10740 | -94.67311 | 37002 ft | 449 kts | 16° |
| 2026-05-09 04:18 | 41.16733 | -94.64964 | 37001 ft | 449 kts | 16° |
| 2026-05-09 04:18 | 41.21723 | -94.63008 | 37001 ft | 449 kts | 16° |
| 2026-05-09 04:19 | 41.27717 | -94.60653 | 37002 ft | 449 kts | 16° |
| 2026-05-09 04:19 | 41.33716 | -94.58292 | 37001 ft | 449 kts | 16° |
| 2026-05-09 04:20 | 41.39709 | -94.55929 | 37001 ft | 449 kts | 16° |
| 2026-05-09 04:20 | 41.45708 | -94.53558 | 37002 ft | 449 kts | 16° |
| 2026-05-09 04:21 | 41.51700 | -94.51186 | 37001 ft | 449 kts | 16° |
| 2026-05-09 04:22 | 41.60693 | -94.47617 | 37002 ft | 449 kts | 16° |
| 2026-05-09 04:22 | 41.66685 | -94.45234 | 37001 ft | 449 kts | 16° |
| 2026-05-09 04:23 | 41.72675 | -94.42846 | 37000 ft | 449 kts | 16° |
| 2026-05-09 04:23 | 41.78623 | -94.40471 | 37002 ft | 449 kts | 16° |
| 2026-05-09 04:24 | 41.84612 | -94.38074 | 37001 ft | 449 kts | 16° |
| 2026-05-09 04:24 | 41.90603 | -94.35672 | 37001 ft | 449 kts | 16° |
| 2026-05-09 04:25 | 41.96590 | -94.33267 | 37001 ft | 449 kts | 16° |
| 2026-05-09 04:25 | 42.02572 | -94.30860 | 37001 ft | 449 kts | 16° |
| 2026-05-09 04:26 | 42.08550 | -94.28449 | 37001 ft | 448 kts | 16° |
| 2026-05-09 04:26 | 42.14527 | -94.26033 | 37001 ft | 448 kts | 16° |
| 2026-05-09 04:27 | 42.20503 | -94.23614 | 37001 ft | 448 kts | 16° |
| 2026-05-09 04:27 | 42.26478 | -94.21190 | 37001 ft | 448 kts | 16° |
| 2026-05-09 04:28 | 42.32456 | -94.18760 | 37002 ft | 448 kts | 16° |
| 2026-05-09 04:28 | 42.38430 | -94.16327 | 37001 ft | 448 kts | 16° |
| 2026-05-09 04:29 | 42.44369 | -94.13903 | 36995 ft | 449 kts | 16° |
| 2026-05-09 04:29 | 42.47374 | -94.12674 | 36735 ft | 452 kts | 16° |
| 2026-05-09 04:29 | 42.50378 | -94.11445 | 36490 ft | 449 kts | 16° |
| 2026-05-09 04:29 | 42.53367 | -94.10221 | 36239 ft | 447 kts | 16° |
| 2026-05-09 04:30 | 42.56342 | -94.09001 | 35998 ft | 447 kts | 16° |
| 2026-05-09 04:30 | 42.59321 | -94.07779 | 35752 ft | 447 kts | 16° |
| 2026-05-09 04:30 | 42.62278 | -94.06476 | 35491 ft | 447 kts | 23° |
| 2026-05-09 04:30 | 42.65049 | -94.04555 | 35265 ft | 447 kts | 30° |
| 2026-05-09 04:31 | 42.67724 | -94.02399 | 35010 ft | 447 kts | 31° |
| 2026-05-09 04:31 | 42.70383 | -94.00204 | 34761 ft | 446 kts | 31° |
| 2026-05-09 04:31 | 42.73047 | -93.98036 | 34513 ft | 445 kts | 30° |
| 2026-05-09 04:31 | 42.75714 | -93.95912 | 34260 ft | 443 kts | 30° |
| 2026-05-09 04:32 | 42.78378 | -93.93825 | 34009 ft | 441 kts | 29° |
| 2026-05-09 04:32 | 42.81033 | -93.91757 | 33757 ft | 439 kts | 29° |
| 2026-05-09 04:32 | 42.83676 | -93.89698 | 33505 ft | 436 kts | 29° |
| 2026-05-09 04:32 | 42.86267 | -93.87677 | 33261 ft | 433 kts | 29° |
| 2026-05-09 04:33 | 42.88890 | -93.85653 | 33006 ft | 431 kts | 29° |
| 2026-05-09 04:33 | 42.91492 | -93.83657 | 32755 ft | 428 kts | 29° |
| 2026-05-09 04:33 | 42.94087 | -93.81667 | 32504 ft | 426 kts | 29° |
| 2026-05-09 04:33 | 42.96661 | -93.79690 | 32254 ft | 424 kts | 29° |
| 2026-05-09 04:34 | 42.99216 | -93.77724 | 31935 ft | 419 kts | 29° |
| 2026-05-09 04:34 | 43.01743 | -93.75775 | 31565 ft | 415 kts | 29° |
| 2026-05-09 04:34 | 43.04253 | -93.73837 | 31172 ft | 412 kts | 29° |
| 2026-05-09 04:34 | 43.06743 | -93.71912 | 30775 ft | 409 kts | 29° |
| 2026-05-09 04:35 | 43.09213 | -93.70001 | 30385 ft | 407 kts | 29° |
| 2026-05-09 04:35 | 43.11673 | -93.68095 | 29987 ft | 404 kts | 29° |
| 2026-05-09 04:35 | 43.14077 | -93.66230 | 29598 ft | 401 kts | 29° |
| 2026-05-09 04:35 | 43.16497 | -93.64352 | 29186 ft | 398 kts | 29° |
| 2026-05-09 04:36 | 43.18900 | -93.62485 | 28782 ft | 396 kts | 29° |
| 2026-05-09 04:36 | 43.21290 | -93.60627 | 28380 ft | 393 kts | 29° |
| 2026-05-09 04:36 | 43.23662 | -93.58782 | 27972 ft | 391 kts | 29° |
| 2026-05-09 04:36 | 43.26022 | -93.56943 | 27572 ft | 388 kts | 29° |
| 2026-05-09 04:37 | 43.28432 | -93.55311 | 27148 ft | 385 kts | 16° |
| 2026-05-09 04:37 | 43.31060 | -93.54757 | 26791 ft | 380 kts | 3° |
| 2026-05-09 04:37 | 43.33700 | -93.54547 | 26385 ft | 378 kts | 2° |
| 2026-05-09 04:37 | 43.36321 | -93.54371 | 25992 ft | 376 kts | 2° |
| 2026-05-09 04:38 | 43.38925 | -93.54185 | 25600 ft | 374 kts | 2° |
| 2026-05-09 04:38 | 43.41479 | -93.53985 | 25216 ft | 372 kts | 2° |
| 2026-05-09 04:38 | 43.44053 | -93.53767 | 24829 ft | 369 kts | 3° |
| 2026-05-09 04:38 | 43.46614 | -93.53543 | 24446 ft | 367 kts | 3° |
| 2026-05-09 04:39 | 43.49156 | -93.53320 | 24061 ft | 365 kts | 3° |
| 2026-05-09 04:39 | 43.51685 | -93.53097 | 23652 ft | 364 kts | 3° |
| 2026-05-09 04:39 | 43.54217 | -93.52875 | 23241 ft | 364 kts | 3° |
| 2026-05-09 04:39 | 43.56748 | -93.52653 | 22828 ft | 364 kts | 3° |
| 2026-05-09 04:40 | 43.59274 | -93.52431 | 22412 ft | 363 kts | 3° |
| 2026-05-09 04:40 | 43.61794 | -93.52210 | 21998 ft | 362 kts | 3° |
| 2026-05-09 04:40 | 43.64304 | -93.51989 | 21586 ft | 360 kts | 3° |
| 2026-05-09 04:40 | 43.66801 | -93.51770 | 21167 ft | 359 kts | 3° |
| 2026-05-09 04:41 | 43.69289 | -93.51550 | 20772 ft | 357 kts | 3° |
| 2026-05-09 04:41 | 43.71743 | -93.51334 | 20579 ft | 349 kts | 3° |
| 2026-05-09 04:41 | 43.74160 | -93.51120 | 20217 ft | 347 kts | 3° |
| 2026-05-09 04:41 | 43.76565 | -93.50908 | 19836 ft | 346 kts | 3° |
| 2026-05-09 04:42 | 43.78936 | -93.50699 | 19454 ft | 345 kts | 3° |
| 2026-05-09 04:42 | 43.81329 | -93.50487 | 19062 ft | 344 kts | 3° |
| 2026-05-09 04:42 | 43.83717 | -93.50276 | 18676 ft | 343 kts | 3° |
| 2026-05-09 04:42 | 43.86097 | -93.50065 | 18276 ft | 342 kts | 3° |
| 2026-05-09 04:43 | 43.88471 | -93.49855 | 17897 ft | 340 kts | 3° |
| 2026-05-09 04:43 | 43.90830 | -93.49645 | 17510 ft | 339 kts | 3° |
| 2026-05-09 04:43 | 43.93180 | -93.49437 | 17122 ft | 337 kts | 3° |
| 2026-05-09 04:43 | 43.95520 | -93.49229 | 16745 ft | 336 kts | 3° |
| 2026-05-09 04:44 | 43.97845 | -93.49008 | 16373 ft | 334 kts | 4° |
| 2026-05-09 04:44 | 44.00161 | -93.48748 | 15979 ft | 333 kts | 4° |
| 2026-05-09 04:44 | 44.02465 | -93.48477 | 15605 ft | 331 kts | 4° |
| 2026-05-09 04:44 | 44.04757 | -93.48207 | 15225 ft | 330 kts | 4° |
| 2026-05-09 04:45 | 44.07038 | -93.47941 | 14846 ft | 328 kts | 4° |
| 2026-05-09 04:45 | 44.09314 | -93.47678 | 14477 ft | 327 kts | 4° |
| 2026-05-09 04:45 | 44.11569 | -93.47418 | 14108 ft | 325 kts | 4° |
| 2026-05-09 04:45 | 44.13819 | -93.47160 | 13740 ft | 323 kts | 4° |
| 2026-05-09 04:46 | 44.16032 | -93.46906 | 13376 ft | 322 kts | 4° |
| 2026-05-09 04:46 | 44.18259 | -93.46636 | 13008 ft | 320 kts | 6° |
| 2026-05-09 04:46 | 44.20393 | -93.45805 | 12640 ft | 318 kts | 22° |
| 2026-05-09 04:46 | 44.22407 | -93.44604 | 12284 ft | 311 kts | 22° |
| 2026-05-09 04:47 | 44.24390 | -93.43452 | 11928 ft | 306 kts | 21° |
| 2026-05-09 04:47 | 44.26355 | -93.42345 | 11592 ft | 306 kts | 21° |
| 2026-05-09 04:47 | 44.28335 | -93.41243 | 11252 ft | 307 kts | 21° |
| 2026-05-09 04:47 | 44.30320 | -93.40138 | 10950 ft | 307 kts | 21° |
| 2026-05-09 04:48 | 44.32297 | -93.39033 | 10641 ft | 303 kts | 21° |
| 2026-05-09 04:48 | 44.34231 | -93.37951 | 10340 ft | 296 kts | 21° |
| 2026-05-09 04:48 | 44.36107 | -93.36901 | 10202 ft | 283 kts | 21° |
| 2026-05-09 04:48 | 44.37898 | -93.35771 | 9812 ft | 281 kts | 26° |
| 2026-05-09 04:49 | 44.39617 | -93.34538 | 9533 ft | 276 kts | 27° |
| 2026-05-09 04:49 | 44.41310 | -93.33287 | 9251 ft | 275 kts | 27° |
| 2026-05-09 04:49 | 44.43008 | -93.32042 | 8988 ft | 276 kts | 27° |
| 2026-05-09 04:49 | 44.44716 | -93.30802 | 8715 ft | 276 kts | 26° |
| 2026-05-09 04:50 | 44.46425 | -93.29566 | 8443 ft | 277 kts | 26° |
| 2026-05-09 04:50 | 44.47959 | -93.27977 | 8239 ft | 276 kts | 51° |
| 2026-05-09 04:50 | 44.49035 | -93.25803 | 8176 ft | 268 kts | 56° |
| 2026-05-09 04:50 | 44.50064 | -93.23629 | 8089 ft | 269 kts | 56° |
| 2026-05-09 04:51 | 44.51175 | -93.21503 | 7997 ft | 273 kts | 43° |
| 2026-05-09 04:51 | 44.52702 | -93.19936 | 7937 ft | 273 kts | 31° |
| 2026-05-09 04:51 | 44.54325 | -93.18547 | 7844 ft | 273 kts | 30° |
| 2026-05-09 04:51 | 44.55935 | -93.17198 | 7766 ft | 272 kts | 30° |
| 2026-05-09 04:52 | 44.57561 | -93.15843 | 7700 ft | 271 kts | 30° |
| 2026-05-09 04:52 | 44.59183 | -93.14494 | 7628 ft | 270 kts | 30° |
| 2026-05-09 04:52 | 44.60799 | -93.13153 | 7571 ft | 269 kts | 30° |
| 2026-05-09 04:52 | 44.62403 | -93.11821 | 7538 ft | 267 kts | 30° |
| 2026-05-09 04:53 | 44.64000 | -93.10496 | 7513 ft | 265 kts | 30° |